Time;durP1;ratioP1;P1;durP2;ratioP2;P2;SDS_P1;SDS_P2;PMS_P1;PMS_P2;Temp;Humidity;BMP_temperature;BMP_pressure;BME280_temperature;BME280_humidity;BME280_pressure;Samples;Min_cycle;Max_cycle;Signal;HPM_P1;HPM_P2
2022/04/05 00:01:18;;;;;;;40.65;22.80;;;;;;;1.31;100.00;94235.22;5018925;28;20057;-88
2022/04/05 00:03:43;;;;;;;43.45;23.08;;;;;;;1.47;100.00;94226.16;5002773;28;20449;-88
2022/04/05 00:06:09;;;;;;;42.22;22.70;;;;;;;1.51;100.00;94231.69;5002266;28;20029;-89
2022/04/05 00:08:34;;;;;;;38.78;21.15;;;;;;;1.37;100.00;94231.00;5001919;28;20029;-88
2022/04/05 00:11:00;;;;;;;45.78;22.02;;;;;;;1.40;100.00;94222.84;5002837;28;20120;-88
2022/04/05 00:13:28;;;;;;;35.22;20.27;;;;;;;1.39;100.00;94224.63;5002749;28;20022;-88
2022/04/05 00:15:53;;;;;;;37.47;21.35;;;;;;;1.32;100.00;94223.91;5018866;28;20029;-88
2022/04/05 00:18:19;;;;;;;39.75;20.88;;;;;;;1.26;100.00;94215.22;5002919;28;20025;-88
2022/04/05 00:20:45;;;;;;;40.30;21.58;;;;;;;1.14;100.00;94219.47;5018853;28;20026;-88
2022/04/05 00:23:11;;;;;;;40.95;22.20;;;;;;;1.07;100.00;94213.59;5002377;28;20072;-88
2022/04/05 00:25:36;;;;;;;46.78;22.02;;;;;;;1.12;100.00;94224.06;5002111;28;20419;-89
2022/04/05 00:28:02;;;;;;;41.03;22.77;;;;;;;1.16;100.00;94217.50;5002510;28;20056;-88
2022/04/05 00:30:27;;;;;;;45.60;24.30;;;;;;;1.11;100.00;94217.31;5018891;28;20151;-89
2022/04/05 00:32:53;;;;;;;44.75;24.40;;;;;;;1.15;100.00;94210.75;5002543;28;20048;-88
2022/04/05 00:35:21;;;;;;;44.50;24.58;;;;;;;1.31;100.00;94214.56;5018839;28;20030;-88
2022/04/05 00:37:47;;;;;;;50.67;26.60;;;;;;;1.30;100.00;94204.47;5018065;28;20036;-90
2022/04/05 00:40:12;;;;;;;46.17;25.58;;;;;;;1.22;100.00;94206.31;5018494;28;20029;-89
2022/04/05 00:42:38;;;;;;;44.97;24.30;;;;;;;1.17;100.00;94211.34;5018648;28;20331;-89
2022/04/05 00:45:05;;;;;;;47.30;25.02;;;;;;;1.15;100.00;94207.38;5018930;28;20498;-89
2022/04/05 00:47:30;;;;;;;48.08;24.98;;;;;;;1.46;100.00;94205.69;4989160;28;20120;-89
2022/04/05 00:49:57;;;;;;;40.33;23.42;;;;;;;1.23;100.00;94205.31;5007131;28;20506;-89
2022/04/05 00:52:25;;;;;;;42.40;24.27;;;;;;;1.27;100.00;94205.69;5015768;28;20076;-90
2022/04/05 00:54:51;;;;;;;46.67;25.60;;;;;;;1.19;100.00;94191.25;5016684;28;20347;-89
2022/04/05 00:57:19;;;;;;;49.67;24.73;;;;;;;1.23;100.00;94186.47;4995845;28;20033;-89
2022/04/05 00:59:59;;;;;;;43.08;24.35;;;;;;;1.16;100.00;94193.47;5039209;28;20395;-88
2022/04/05 01:02:27;;;;;;;45.83;25.20;;;;;;;1.04;100.00;94186.41;4985769;28;20143;-90
2022/04/05 01:04:54;;;;;;;49.67;25.02;;;;;;;1.00;100.00;94182.69;5033694;28;20112;-91
2022/04/05 01:07:22;;;;;;;44.22;24.10;;;;;;;0.99;100.00;94187.03;5005333;28;20076;-91
2022/04/05 01:09:59;;;;;;;50.17;25.25;;;;;;;0.98;100.00;94188.03;5005421;28;20443;-92
2022/04/05 01:12:24;;;;;;;48.92;25.95;;;;;;;0.94;100.00;94186.91;5023001;28;20104;-91
2022/04/05 01:14:50;;;;;;;50.60;24.80;;;;;;;0.67;100.00;94184.50;5005570;28;20125;-89
2022/04/05 01:17:16;;;;;;;42.85;24.27;;;;;;;0.60;100.00;94186.38;5021327;28;20032;-91
2022/04/05 01:19:42;;;;;;;39.05;21.30;;;;;;;0.61;100.00;94185.38;5021508;28;20443;-91
2022/04/05 01:22:08;;;;;;;37.28;17.02;;;;;;;0.69;100.00;94179.94;5005171;28;20025;-91
2022/04/05 01:24:34;;;;;;;34.00;15.88;;;;;;;0.81;100.00;94182.66;5021255;28;20063;-91
2022/04/05 01:27:04;;;;;;;17.48;9.98;;;;;;;0.79;100.00;94186.41;5004751;28;20029;-88
2022/04/05 01:29:31;;;;;;;10.73;5.38;;;;;;;1.18;100.00;94179.38;5021768;28;20041;-89
2022/04/05 01:31:56;;;;;;;11.60;6.50;;;;;;;1.22;100.00;94167.59;5038728;28;20083;-90
2022/04/05 01:34:24;;;;;;;10.05;3.85;;;;;;;1.31;100.00;94170.69;5020868;28;20378;-88
2022/04/05 01:36:52;;;;;;;9.18;4.60;;;;;;;1.40;100.00;94168.63;5004636;28;20037;-89
2022/04/05 01:39:20;;;;;;;7.10;4.00;;;;;;;1.39;100.00;94172.19;5021223;28;20037;-88
2022/04/05 01:41:46;;;;;;;7.00;4.43;;;;;;;1.25;100.00;94164.59;5021210;28;20025;-89
2022/04/05 01:44:13;;;;;;;8.70;4.15;;;;;;;1.22;100.00;94161.63;5021192;28;20079;-89
2022/04/05 01:46:39;;;;;;;7.88;4.38;;;;;;;1.13;100.00;94161.94;5020936;28;20025;-91
2022/04/05 01:49:06;;;;;;;7.63;4.05;;;;;;;1.17;100.00;94159.72;5020796;28;20029;-91
2022/04/05 01:51:35;;;;;;;6.30;3.80;;;;;;;1.29;100.00;94161.56;5004582;28;20049;-90
2022/04/05 01:54:05;;;;;;;7.57;3.80;;;;;;;1.12;100.00;94162.13;5020965;28;20346;-87
2022/04/05 01:56:33;;;;;;;8.60;3.97;;;;;;;1.13;100.00;94161.94;5020909;28;20071;-87
2022/04/05 01:59:00;;;;;;;10.43;4.10;;;;;;;0.99;100.00;94163.81;5019884;28;20430;-88
2022/04/05 02:01:25;;;;;;;7.30;3.60;;;;;;;0.99;100.00;94161.25;5020899;28;20025;-89
2022/04/05 02:03:51;;;;;;;8.35;3.55;;;;;;;1.11;100.00;94157.97;5020954;28;20430;-88
2022/04/05 02:06:16;;;;;;;7.00;3.60;;;;;;;1.30;100.00;94153.63;5004241;28;20029;-88
2022/04/05 02:08:42;;;;;;;6.00;3.05;;;;;;;1.38;100.00;94147.41;5020618;28;20331;-89
2022/04/05 02:11:07;;;;;;;5.85;2.95;;;;;;;1.29;100.00;94152.06;5020809;28;20022;-88
2022/04/05 02:13:35;;;;;;;4.63;2.78;;;;;;;1.47;100.00;94151.28;5020917;28;20037;-89
2022/04/05 02:16:03;;;;;;;6.68;3.00;;;;;;;1.53;100.00;94154.78;5004229;28;20025;-89
2022/04/05 02:18:31;;;;;;;10.02;4.13;;;;;;;1.52;100.00;94145.47;5004097;28;20032;-89
2022/04/05 02:20:57;;;;;;;7.22;3.17;;;;;;;1.48;100.00;94139.94;5020661;28;20073;-88
2022/04/05 02:23:23;;;;;;;5.70;2.72;;;;;;;1.50;100.00;94140.50;5020363;28;20121;-88
2022/04/05 02:25:49;;;;;;;4.55;2.40;;;;;;;1.24;100.00;94137.19;5004073;28;20026;-88
2022/04/05 02:28:14;;;;;;;4.95;2.78;;;;;;;1.15;100.00;94135.91;5019929;28;20040;-88
2022/04/05 02:30:41;;;;;;;5.13;2.83;;;;;;;1.02;100.00;94138.63;5004124;28;20339;-89
2022/04/05 02:33:07;;;;;;;5.68;2.80;;;;;;;0.78;100.00;94135.84;5020299;28;20088;-87
2022/04/05 02:35:33;;;;;;;8.05;3.22;;;;;;;0.84;100.00;94134.97;5004042;28;20393;-88
2022/04/05 02:37:59;;;;;;;4.28;2.67;;;;;;;0.73;100.00;94130.53;5020106;28;20060;-89
2022/04/05 02:40:25;;;;;;;7.57;4.00;;;;;;;0.57;100.00;94135.19;5003854;28;20061;-88
2022/04/05 02:42:51;;;;;;;7.63;3.55;;;;;;;0.73;100.00;94127.97;5019785;28;20029;-88
2022/04/05 02:45:17;;;;;;;6.15;3.05;;;;;;;0.98;100.00;94131.28;5019931;28;20041;-89
2022/04/05 02:47:44;;;;;;;8.55;2.60;;;;;;;0.92;100.00;94129.56;5019827;28;20462;-91
2022/04/05 02:50:10;;;;;;;4.43;2.60;;;;;;;0.76;100.00;94127.53;5037314;28;20033;-90
2022/04/05 02:52:36;;;;;;;4.55;2.50;;;;;;;0.89;100.00;94126.63;5019600;28;20033;-89
2022/04/05 02:55:03;;;;;;;3.83;2.30;;;;;;;0.94;100.00;94117.25;5019857;28;20561;-89
2022/04/05 02:57:28;;;;;;;5.28;2.78;;;;;;;1.03;100.00;94122.91;5019496;28;20029;-89
2022/04/05 02:59:54;;;;;;;4.18;2.38;;;;;;;1.11;100.00;94117.50;5019588;28;20029;-89
2022/04/05 03:02:19;;;;;;;10.80;2.58;;;;;;;0.81;100.00;94114.78;5019627;28;20336;-90
2022/04/05 03:04:45;;;;;;;5.43;2.75;;;;;;;0.86;100.00;94112.34;5019602;28;20431;-90
2022/04/05 03:07:10;;;;;;;4.88;2.72;;;;;;;0.72;100.00;94116.03;5036924;28;20041;-89
2022/04/05 03:09:36;;;;;;;5.88;2.35;;;;;;;0.61;100.00;94114.94;5019232;28;20116;-89
2022/04/05 03:12:01;;;;;;;5.60;2.67;;;;;;;0.79;100.00;94114.22;5019512;28;20033;-89
2022/04/05 03:14:27;;;;;;;4.38;2.50;;;;;;;0.86;100.00;94116.72;5019519;28;20033;-91
2022/04/05 03:16:55;;;;;;;6.32;2.47;;;;;;;1.02;100.00;94116.19;5019068;28;20040;-89
2022/04/05 03:19:20;;;;;;;5.80;2.72;;;;;;;0.95;100.00;94105.91;5036935;28;20045;-89
2022/04/05 03:21:46;;;;;;;6.18;2.90;;;;;;;0.79;100.00;94099.53;5019466;28;20037;-89
2022/04/05 03:24:11;;;;;;;7.10;3.42;;;;;;;0.82;100.00;94100.88;5019303;28;20415;-90
2022/04/05 03:26:36;;;;;;;3.78;2.83;;;;;;;0.96;100.00;94104.16;5002679;28;20037;-89
2022/04/05 03:29:02;;;;;;;5.18;3.03;;;;;;;1.13;100.00;94109.50;5019620;28;20033;-89
2022/04/05 03:31:28;;;;;;;5.22;3.08;;;;;;;1.14;100.00;94111.09;5019294;28;20055;-89
2022/04/05 03:33:53;;;;;;;6.18;2.72;;;;;;;1.07;100.00;94107.81;5037160;28;20041;-89
2022/04/05 03:36:18;;;;;;;5.60;3.00;;;;;;;1.01;100.00;94106.09;5018903;28;20088;-88
2022/04/05 03:38:44;;;;;;;6.50;2.80;;;;;;;1.03;100.00;94101.50;5019514;28;20033;-90
2022/04/05 03:41:10;;;;;;;6.40;3.25;;;;;;;0.94;100.00;94104.34;5018876;28;20048;-89
2022/04/05 03:43:35;;;;;;;6.07;3.10;;;;;;;0.70;100.00;94106.72;5019548;28;20146;-89
2022/04/05 03:46:00;;;;;;;7.32;2.72;;;;;;;0.70;100.00;94099.00;5019072;28;20427;-89
2022/04/05 03:48:26;;;;;;;5.13;2.42;;;;;;;0.78;100.00;94104.91;5003212;28;20033;-89
2022/04/05 03:50:52;;;;;;;4.25;3.08;;;;;;;0.55;100.00;94096.75;5019363;28;20347;-89
2022/04/05 03:53:17;;;;;;;6.18;3.67;;;;;;;0.45;100.00;94095.66;5019312;28;20033;-89
2022/04/05 03:55:43;;;;;;;8.20;2.92;;;;;;;0.45;100.00;94100.81;5019188;28;20044;-90
2022/04/05 03:58:09;;;;;;;6.80;3.17;;;;;;;0.60;100.00;94098.69;5018699;28;20053;-89
2022/04/05 04:00:34;;;;;;;7.72;3.40;;;;;;;0.45;100.00;94098.22;5018308;28;20044;-89
2022/04/05 04:02:59;;;;;;;9.65;3.45;;;;;;;0.33;100.00;94098.09;5019261;28;20434;-89
2022/04/05 04:05:25;;;;;;;6.85;3.08;;;;;;;0.31;100.00;94094.94;5036497;28;20056;-88
2022/04/05 04:07:51;;;;;;;5.32;3.03;;;;;;;0.23;100.00;94093.41;5036514;28;20029;-88
2022/04/05 04:10:18;;;;;;;7.20;3.15;;;;;;;0.18;100.00;94080.38;5019205;28;20036;-89
2022/04/05 04:12:44;;;;;;;7.93;3.55;;;;;;;0.15;100.00;94091.13;4987395;28;20059;-89
2022/04/05 04:15:10;;;;;;;7.10;3.70;;;;;;;0.14;100.00;94085.16;5017006;28;20437;-89
2022/04/05 04:17:35;;;;;;;7.05;3.47;;;;;;;0.21;100.00;94095.41;4983102;28;20124;-89
2022/04/05 04:20:01;;;;;;;8.57;3.50;;;;;;;0.24;100.00;94090.66;4999224;28;20057;-89
2022/04/05 04:22:29;;;;;;;6.85;4.25;;;;;;;0.20;100.00;94092.03;5000790;28;20039;-89
2022/04/05 04:24:57;;;;;;;10.05;4.47;;;;;;;0.16;100.00;94082.38;5020420;28;20419;-89
2022/04/05 04:27:26;;;;;;;8.80;3.97;;;;;;;0.07;100.00;94087.78;5020291;28;20026;-89
2022/04/05 04:29:51;;;;;;;7.22;3.60;;;;;;;0.12;100.00;94087.16;5019351;28;20129;-89
2022/04/05 04:32:17;;;;;;;15.55;4.50;;;;;;;0.32;100.00;94084.44;5002635;28;20128;-89
2022/04/05 04:34:42;;;;;;;5.28;3.28;;;;;;;0.44;100.00;94083.75;5019033;28;20034;-89
2022/04/05 04:37:08;;;;;;;7.82;3.28;;;;;;;0.34;100.00;94091.94;5002876;28;20065;-89
2022/04/05 04:39:35;;;;;;;7.45;4.20;;;;;;;0.22;100.00;94090.06;5002600;28;20088;-88
2022/04/05 04:42:01;;;;;;;13.60;4.43;;;;;;;0.28;100.00;94091.78;5003182;28;20026;-90
2022/04/05 04:44:27;;;;;;;5.97;3.70;;;;;;;0.26;100.00;94093.78;4986402;28;20036;-90
2022/04/05 04:46:57;;;;;;;8.23;3.78;;;;;;;0.36;100.00;94098.47;5002101;28;20425;-91
2022/04/05 04:49:22;;;;;;;12.32;3.85;;;;;;;0.32;100.00;94099.91;5005945;28;20030;-91
2022/04/05 04:51:50;;;;;;;5.35;3.10;;;;;;;0.32;100.00;94097.31;5005540;28;20041;-91
2022/04/05 04:54:16;;;;;;;5.68;3.28;;;;;;;0.33;100.00;94092.94;5011098;28;20430;-90
2022/04/05 04:56:41;;;;;;;8.73;3.08;;;;;;;0.33;100.00;94088.59;5021607;28;20092;-90
2022/04/05 04:59:07;;;;;;;6.85;3.03;;;;;;;0.46;100.00;94089.50;5039325;28;20037;-90
2022/04/05 05:01:34;;;;;;;10.82;3.10;;;;;;;0.40;100.00;94089.31;5021653;28;20029;-90
2022/04/05 05:04:09;;;;;;;8.18;3.50;;;;;;;0.41;100.00;94085.75;5022066;28;20042;-90
2022/04/05 05:06:35;;;;;;;11.70;3.92;;;;;;;0.44;100.00;94094.84;5005681;28;20407;-91
2022/04/05 05:09:01;;;;;;;5.22;3.08;;;;;;;0.58;100.00;94092.16;5021539;28;20037;-90
2022/04/05 05:11:26;;;;;;;4.97;2.88;;;;;;;0.60;100.00;94098.69;5021498;28;20036;-89
2022/04/05 05:13:52;;;;;;;7.35;3.25;;;;;;;0.59;100.00;94101.47;5021758;28;20029;-90
2022/04/05 05:16:17;;;;;;;5.78;3.58;;;;;;;0.60;100.00;94101.28;5021322;28;20029;-89
2022/04/05 05:18:43;;;;;;;4.95;2.55;;;;;;;0.64;100.00;94099.84;5021658;28;20358;-90
2022/04/05 05:21:08;;;;;;;8.45;3.45;;;;;;;0.72;100.00;94098.78;5021687;28;20029;-90
2022/04/05 05:23:34;;;;;;;6.50;3.10;;;;;;;0.83;100.00;94098.09;5021409;28;20355;-91
2022/04/05 05:25:59;;;;;;;5.30;3.30;;;;;;;0.82;100.00;94100.88;5005173;28;20417;-90
2022/04/05 05:28:25;;;;;;;5.20;3.55;;;;;;;0.85;100.00;94095.28;5005315;28;20120;-89
2022/04/05 05:30:53;;;;;;;5.82;3.65;;;;;;;0.92;100.00;94098.63;5005359;28;20111;-90
2022/04/05 05:33:19;;;;;;;8.70;3.85;;;;;;;0.91;100.00;94104.78;5021451;28;20116;-89
2022/04/05 05:35:44;;;;;;;7.28;3.55;;;;;;;1.05;100.00;94096.91;5004944;28;20419;-90
2022/04/05 05:38:10;;;;;;;6.07;2.97;;;;;;;1.16;100.00;94098.78;5020978;28;20032;-90
2022/04/05 05:40:35;;;;;;;3.75;2.47;;;;;;;1.35;100.00;94109.09;5020916;28;20096;-90
2022/04/05 05:43:02;;;;;;;4.18;2.65;;;;;;;1.49;100.00;94102.78;5021213;28;20037;-89
2022/04/05 05:45:30;;;;;;;8.63;3.38;;;;;;;1.54;100.00;94104.72;5021724;28;20033;-89
2022/04/05 05:47:56;;;;;;;8.85;3.20;;;;;;;1.69;100.00;94106.91;5020923;28;20076;-90
2022/04/05 05:50:22;;;;;;;7.57;2.97;;;;;;;1.80;100.00;94111.34;5004903;28;20379;-88
2022/04/05 05:52:48;;;;;;;6.68;2.88;;;;;;;1.95;100.00;94113.56;5005107;28;20029;-90
2022/04/05 05:55:18;;;;;;;9.90;3.47;;;;;;;2.33;100.00;94105.69;5004828;28;20489;-90
2022/04/05 05:57:43;;;;;;;4.90;2.67;;;;;;;2.59;100.00;94106.28;5020889;28;20037;-90
2022/04/05 06:00:11;;;;;;;5.00;2.70;;;;;;;2.57;100.00;94108.31;5004316;28;20029;-90
2022/04/05 06:02:41;;;;;;;3.80;2.50;;;;;;;2.67;100.00;94105.97;5020534;28;20096;-90
2022/04/05 06:05:10;;;;;;;5.65;3.10;;;;;;;2.60;100.00;94107.88;5038082;28;20067;-90
2022/04/05 06:07:36;;;;;;;7.00;3.30;;;;;;;2.76;100.00;94104.63;5020762;28;20441;-89
2022/04/05 06:10:04;;;;;;;6.82;3.53;;;;;;;2.88;100.00;94111.59;5038282;28;20029;-90
2022/04/05 06:12:30;;;;;;;6.30;3.90;;;;;;;2.93;100.00;94114.28;5020390;28;20029;-91
2022/04/05 06:14:59;;;;;;;6.95;4.18;;;;;;;2.95;100.00;94118.25;5020255;28;20034;-90
2022/04/05 06:17:25;;;;;;;6.10;4.03;;;;;;;3.08;100.00;94119.03;5037786;28;20029;-90
2022/04/05 06:19:51;;;;;;;7.70;4.15;;;;;;;2.96;100.00;94114.63;5004152;28;20033;-90
2022/04/05 06:22:17;;;;;;;6.18;3.78;;;;;;;3.00;100.00;94120.16;5003931;28;20041;-90
2022/04/05 06:24:42;;;;;;;6.32;3.85;;;;;;;2.91;100.00;94118.91;5004329;28;20355;-90
2022/04/05 06:27:07;;;;;;;6.63;3.47;;;;;;;3.10;100.00;94125.56;5020014;28;20030;-90
2022/04/05 06:29:35;;;;;;;7.63;3.80;;;;;;;3.32;100.00;94126.78;5004286;28;20025;-90
2022/04/05 06:32:01;;;;;;;8.68;3.50;;;;;;;3.47;100.00;94126.28;5020328;28;20036;-90
2022/04/05 06:34:27;;;;;;;6.60;3.85;;;;;;;3.51;100.00;94132.59;5003801;28;20428;-90
2022/04/05 06:36:53;;;;;;;8.30;3.50;;;;;;;3.76;100.00;94127.16;5020189;28;20041;-89
2022/04/05 06:39:19;;;;;;;5.05;3.03;;;;;;;3.70;100.00;94124.69;5020296;28;20040;-90
2022/04/05 06:41:44;;;;;;;8.35;3.17;;;;;;;3.80;100.00;94122.28;5003688;28;20029;-90
2022/04/05 06:44:10;;;;;;;5.57;3.15;;;;;;;3.94;100.00;94126.16;5019402;28;20091;-90
2022/04/05 06:46:35;;;;;;;4.88;2.72;;;;;;;4.07;100.00;94122.53;5037263;28;20077;-90
2022/04/05 06:49:01;;;;;;;9.00;3.33;;;;;;;4.24;100.00;94121.78;5003306;28;20436;-90
2022/04/05 06:51:28;;;;;;;5.53;2.80;;;;;;;4.53;100.00;94117.34;5019617;28;20040;-90
2022/04/05 06:53:54;;;;;;;8.75;3.30;;;;;;;4.62;100.00;94119.53;5037278;28;20371;-90
2022/04/05 06:56:21;;;;;;;7.65;3.28;;;;;;;4.61;100.00;94121.34;5037093;28;20029;-90
2022/04/05 06:58:48;;;;;;;7.00;3.35;;;;;;;4.62;100.00;94117.75;5020062;28;20041;-90
2022/04/05 07:01:13;;;;;;;9.48;3.55;;;;;;;4.66;100.00;94115.44;5036951;28;20419;-89
2022/04/05 07:03:39;;;;;;;7.07;3.15;;;;;;;4.70;100.00;94121.75;5003532;28;20127;-90
2022/04/05 07:06:04;;;;;;;5.30;3.63;;;;;;;4.67;100.00;94120.41;5019339;28;20095;-90
2022/04/05 07:08:30;;;;;;;11.70;3.78;;;;;;;4.77;100.00;94116.41;5003226;28;20124;-90
2022/04/05 07:10:56;;;;;;;7.43;3.90;;;;;;;4.95;100.00;94116.16;5019288;28;20167;-89
2022/04/05 07:13:23;;;;;;;6.15;3.92;;;;;;;5.01;100.00;94114.41;5019457;28;20108;-89
2022/04/05 07:15:51;;;;;;;8.20;4.35;;;;;;;5.05;100.00;94112.13;5019624;28;20088;-90
2022/04/05 07:18:17;;;;;;;10.82;4.30;;;;;;;5.07;100.00;94110.09;5036867;28;20037;-90
2022/04/05 07:20:42;;;;;;;9.25;4.53;;;;;;;5.14;100.00;94110.69;5018977;28;20045;-90
2022/04/05 07:23:07;;;;;;;9.23;4.30;;;;;;;5.22;100.00;94099.91;5036678;28;20423;-90
2022/04/05 07:25:34;;;;;;;9.35;4.00;;;;;;;5.30;100.00;94106.50;5019141;28;20430;-89
2022/04/05 07:28:02;;;;;;;4.78;3.10;;;;;;;5.35;100.00;94108.38;5019213;28;20426;-90
2022/04/05 07:30:28;;;;;;;6.35;3.30;;;;;;;5.42;100.00;94111.56;5036634;28;20040;-90
2022/04/05 07:32:53;;;;;;;8.50;3.67;;;;;;;5.60;100.00;94104.53;5019066;28;20057;-90
2022/04/05 07:35:19;;;;;;;5.57;3.42;;;;;;;5.68;100.00;94104.09;5018840;28;20037;-90
2022/04/05 07:37:45;;;;;;;5.65;3.60;;;;;;;5.64;100.00;94103.00;5036464;28;20029;-90
2022/04/05 07:40:11;;;;;;;6.95;4.18;;;;;;;5.73;100.00;94106.75;5018924;28;20088;-90
2022/04/05 07:42:41;;;;;;;6.80;4.18;;;;;;;6.06;100.00;94101.66;5002535;28;20471;-90
2022/04/05 07:45:08;;;;;;;11.80;4.50;;;;;;;6.04;100.00;94101.91;5019008;28;20108;-90
2022/04/05 07:47:34;;;;;;;7.32;3.85;;;;;;;6.13;100.00;94104.88;5019425;28;20040;-89
2022/04/05 07:49:59;;;;;;;8.48;4.57;;;;;;;6.28;100.00;94106.03;5019109;28;20048;-90
2022/04/05 07:52:25;;;;;;;6.35;4.03;;;;;;;6.34;100.00;94105.03;5002785;28;20115;-90
2022/04/05 07:54:50;;;;;;;8.88;4.72;;;;;;;6.30;100.00;94106.56;5002830;28;20084;-90
2022/04/05 07:57:23;;;;;;;6.57;3.90;;;;;;;6.33;100.00;94112.09;5004062;28;20033;-90
2022/04/05 07:59:48;;;;;;;9.18;3.90;;;;;;;6.42;100.00;94111.63;5023303;28;20036;-90
2022/04/05 08:02:14;;;;;;;7.75;3.92;;;;;;;6.57;100.00;94108.38;5006492;28;20156;-90
2022/04/05 08:04:39;;;;;;;8.82;4.68;;;;;;;6.61;100.00;94109.44;5022765;28;20176;-90
2022/04/05 08:07:06;;;;;;;10.45;4.07;;;;;;;6.82;100.00;94099.19;5006456;28;20029;-91
2022/04/05 08:09:32;;;;;;;8.02;4.60;;;;;;;6.85;100.00;94102.06;5022826;28;20097;-90
2022/04/05 08:11:57;;;;;;;8.60;3.70;;;;;;;6.85;100.00;94107.28;5006407;28;20063;-90
2022/04/05 08:14:27;;;;;;;8.30;3.00;;;;;;;6.88;100.00;94104.16;5040214;28;20025;-90
2022/04/05 08:16:55;;;;;;;7.78;2.95;;;;;;;6.93;100.00;94106.03;5023507;28;20028;-90
2022/04/05 08:19:21;;;;;;;5.93;2.72;;;;;;;6.93;100.00;94104.22;5040368;28;20037;-90
2022/04/05 08:21:46;;;;;;;7.07;3.20;;;;;;;7.16;100.00;94114.53;5022414;28;20033;-90
2022/04/05 08:24:11;;;;;;;6.07;2.95;;;;;;;7.31;100.00;94122.44;5005977;28;20505;-90
2022/04/05 08:26:37;;;;;;;5.20;2.78;;;;;;;7.34;100.00;94121.16;5039851;28;20026;-90
2022/04/05 08:29:02;;;;;;;5.60;2.33;;;;;;;7.45;95.29;94116.75;5022352;28;20029;-90
2022/04/05 08:31:28;;;;;;;5.93;2.50;;;;;;;7.44;100.00;94121.19;5022540;28;20350;-91
2022/04/05 08:33:54;;;;;;;5.90;3.65;;;;;;;7.58;100.00;94121.53;5022469;28;20033;-90
2022/04/05 08:36:19;;;;;;;5.68;2.60;;;;;;;7.48;92.46;94118.84;5006049;28;20056;-90
2022/04/05 08:38:45;;;;;;;4.75;2.78;;;;;;;7.57;100.00;94124.38;5022506;28;20034;-90
2022/04/05 08:41:12;;;;;;;7.40;3.03;;;;;;;7.71;91.15;94117.66;5005947;28;20056;-90
2022/04/05 08:43:42;;;;;;;6.22;3.03;;;;;;;7.95;92.83;94117.22;5022438;28;20387;-90
2022/04/05 08:46:07;;;;;;;6.35;3.45;;;;;;;7.82;88.89;94117.69;5021926;28;20085;-89
2022/04/05 08:48:34;;;;;;;4.68;2.67;;;;;;;7.78;77.90;94117.41;5006099;28;20025;-90
2022/04/05 08:51:00;;;;;;;6.25;2.80;;;;;;;7.83;98.64;94116.66;5039434;28;20427;-90
2022/04/05 08:53:25;;;;;;;5.05;2.65;;;;;;;7.77;82.64;94114.03;5021971;28;20035;-90
2022/04/05 08:55:51;;;;;;;4.00;2.45;;;;;;;7.91;94.32;94114.34;5005562;28;20079;-90
2022/04/05 08:58:17;;;;;;;3.75;2.50;;;;;;;8.12;93.43;94113.63;5022048;28;20450;-90
2022/04/05 09:00:43;;;;;;;8.50;3.30;;;;;;;8.28;100.00;94107.38;5005492;28;20083;-90
2022/04/05 09:03:09;;;;;;;7.65;2.88;;;;;;;8.29;100.00;94095.91;5021671;28;20120;-90
2022/04/05 09:05:43;;;;;;;5.03;2.28;;;;;;;8.44;94.62;94102.97;5022002;28;20188;-90
2022/04/05 09:08:18;;;;;;;6.60;2.85;;;;;;;8.24;93.46;94108.94;5021504;28;20343;-90
2022/04/05 09:10:47;;;;;;;5.05;2.63;;;;;;;8.27;91.74;94103.22;5039294;28;20025;-90
2022/04/05 09:13:13;;;;;;;4.95;2.53;;;;;;;8.57;98.70;94104.31;5021584;28;20025;-90
2022/04/05 09:15:41;;;;;;;5.80;2.47;;;;;;;8.74;72.26;94101.44;5005263;28;20403;-90
2022/04/05 09:18:06;;;;;;;4.60;2.42;;;;;;;9.29;82.66;94102.69;5021460;28;20025;-90
2022/04/05 09:20:44;;;;;;;4.65;2.40;;;;;;;9.28;86.00;94099.31;5005121;28;20128;-91
2022/04/05 09:23:27;;;;;;;7.72;2.60;;;;;;;8.70;68.53;94099.63;5005085;28;20083;-90
2022/04/05 09:25:58;;;;;;;3.00;1.92;;;;;;;9.01;86.46;94094.38;5004841;28;20029;-90
2022/04/05 09:28:39;;;;;;;7.53;2.25;;;;;;;9.19;70.54;94100.88;5021761;28;20474;-89
2022/04/05 09:31:07;;;;;;;5.85;2.20;;;;;;;9.15;68.86;94090.16;5005289;28;20036;-90
2022/04/05 09:33:35;;;;;;;6.45;2.28;;;;;;;9.22;66.03;94091.72;5004917;28;20033;-90
2022/04/05 09:36:08;;;;;;;3.20;2.30;;;;;;;9.10;65.25;94092.78;5004773;28;20044;-89
2022/04/05 09:38:34;;;;;;;;;;;;;;;9.09;63.47;94091.22;5005383;28;20033;-90
2022/04/05 09:41:09;;;;;;;6.05;2.83;;;;;;;9.40;63.61;94087.78;5021157;28;20238;-90
2022/04/05 09:43:35;;;;;;;6.95;2.50;;;;;;;9.59;72.56;94093.19;5038872;28;20045;-90
2022/04/05 09:46:01;;;;;;;5.50;2.30;;;;;;;9.68;75.08;94088.97;5004638;28;20058;-89
2022/04/05 09:48:36;;;;;;;5.10;2.40;;;;;;;9.59;67.18;94088.75;5021580;28;20049;-91
2022/04/05 09:51:10;;;;;;;3.95;2.22;;;;;;;9.75;63.50;94089.47;5004780;28;20025;-90
2022/04/05 09:53:38;;;;;;;5.13;2.60;;;;;;;9.67;63.70;94084.78;5004511;28;20430;-90
2022/04/05 09:56:25;;;;;;;5.82;2.50;;;;;;;9.70;73.42;94086.88;5020750;28;20538;-90
2022/04/05 09:58:57;;;;;;;3.50;2.13;;;;;;;9.76;67.43;94091.03;5038453;28;20044;-91
2022/04/05 10:01:27;;;;;;;4.72;2.45;;;;;;;9.40;66.10;94074.69;5020747;28;20034;-90
2022/04/05 10:04:08;;;;;;;4.70;2.88;;;;;;;9.52;77.29;94077.78;5020612;28;20029;-90
2022/04/05 10:06:38;;;;;;;7.70;2.30;;;;;;;9.75;68.87;94078.22;5004357;28;20032;-90
2022/04/05 10:09:04;;;;;;;4.20;2.22;;;;;;;10.03;60.77;94071.53;5004842;28;20025;-90
2022/04/05 10:11:32;;;;;;;7.38;2.63;;;;;;;9.92;59.96;94069.25;5038566;28;20338;-90
2022/04/05 10:13:58;;;;;;;3.03;1.83;;;;;;;10.19;62.55;94069.59;5004331;28;20033;-90
2022/04/05 10:16:26;;;;;;;3.33;2.10;;;;;;;10.19;60.78;94067.00;5004098;28;20497;-90
2022/04/05 10:18:53;;;;;;;4.05;2.00;;;;;;;10.48;62.78;94068.16;5020015;28;20116;-91
2022/04/05 10:21:21;;;;;;;3.83;1.70;;;;;;;10.46;60.36;94062.38;5019975;28;20112;-90
2022/04/05 10:23:47;;;;;;;2.40;1.60;;;;;;;10.46;61.83;94067.63;5020671;28;20092;-91
2022/04/05 10:26:18;;;;;;;3.50;2.10;;;;;;;10.48;59.74;94062.13;5003907;28;20179;-90
2022/04/05 10:28:45;;;;;;;4.05;1.98;;;;;;;10.40;55.26;94056.41;5020961;28;20055;-90
2022/04/05 10:31:17;;;;;;;5.50;2.10;;;;;;;10.69;55.44;94054.88;5003827;28;20017;-91
2022/04/05 10:34:12;;;;;;;3.22;1.90;;;;;;;10.40;53.06;94059.00;5020236;28;20033;-90
2022/04/05 10:36:38;;;;;;;4.85;1.90;;;;;;;10.87;63.00;94056.03;5004223;28;20029;-90
2022/04/05 10:39:20;;;;;;;3.92;1.80;;;;;;;10.85;58.41;94052.91;5020162;28;20026;-90
2022/04/05 10:42:13;;;;;;;4.03;2.00;;;;;;;11.00;65.26;94050.16;5004106;28;20029;-91
2022/04/05 10:45:13;;;;;;;4.25;2.10;;;;;;;11.15;59.00;94046.56;5016748;28;20132;-90
2022/04/05 10:47:57;;;;;;;3.67;1.88;;;;;;;11.10;61.81;94033.53;5012826;28;20069;-90
2022/04/05 10:50:23;;;;;;;2.20;1.73;;;;;;;11.28;60.09;94041.72;5037355;28;20083;-91
2022/04/05 10:53:13;;;;;;;2.90;1.80;;;;;;;11.47;59.75;94036.53;5019677;28;20029;-90
2022/04/05 10:56:03;;;;;;;2.45;1.65;;;;;;;11.43;53.14;94038.94;5019955;28;20125;-91
2022/04/05 10:58:48;;;;;;;4.60;1.77;;;;;;;11.43;57.45;94040.78;5037135;28;20427;-91
2022/04/05 11:01:18;;;;;;;3.58;1.95;;;;;;;11.25;51.18;94037.06;5015723;28;20112;-90
2022/04/05 11:04:14;;;;;;;2.65;1.65;;;;;;;11.37;57.77;94034.03;5016224;28;20038;-90
2022/04/05 11:06:58;;;;;;;3.58;1.70;;;;;;;11.63;61.17;94029.28;5017121;28;20030;-90
2022/04/05 11:09:44;;;;;;;3.38;1.83;;;;;;;11.67;55.62;94035.50;5017268;28;20026;-90
2022/04/05 11:12:56;;;;;;;;;;;;;;;;;;;;;
2022/04/05 11:15:23;;;;;;;3.45;1.90;;;;;;;11.36;51.90;94025.41;5017214;28;20461;-90
2022/04/05 11:17:49;;;;;;;2.92;1.45;;;;;;;11.38;52.84;94031.13;4999636;28;20037;-91
2022/04/05 11:20:15;;;;;;;3.55;1.58;;;;;;;11.52;54.55;94018.09;4983851;28;20038;-90
2022/04/05 11:22:40;;;;;;;4.07;2.47;;;;;;;11.28;48.17;94026.78;4999596;28;20053;-90
2022/04/05 11:25:13;;;;;;;3.47;1.60;;;;;;;11.60;55.40;94016.69;4999587;28;20030;-90
2022/04/05 11:27:49;;;;;;;2.70;1.70;;;;;;;11.90;52.05;94021.84;5017172;28;20092;-90
2022/04/05 11:30:27;;;;;;;4.53;1.58;;;;;;;11.69;47.58;94022.09;4999384;28;20057;-90
2022/04/05 11:33:14;;;;;;;4.43;1.77;;;;;;;11.55;50.40;94017.56;5016986;28;20030;-90
2022/04/05 11:35:45;;;;;;;4.40;1.77;;;;;;;11.89;50.19;94015.81;5016734;28;20088;-90
2022/04/05 11:38:19;;;;;;;6.05;1.60;;;;;;;12.11;51.81;94012.63;4999327;28;20034;-90